sensor_id;sensor_type;location;lat;lon;timestamp;temperature;humidity
15296;DHT22;7749;49.964;7.890;2023-05-10T00:01:06;14.20;99.90
15296;DHT22;7749;49.964;7.890;2023-05-10T00:03:36;14.20;99.90
15296;DHT22;7749;49.964;7.890;2023-05-10T00:06:04;14.30;99.90
15296;DHT22;7749;49.964;7.890;2023-05-10T00:08:32;14.20;99.90
15296;DHT22;7749;49.964;7.890;2023-05-10T00:10:59;14.20;99.90
15296;DHT22;7749;49.964;7.890;2023-05-10T00:13:27;14.20;99.90
15296;DHT22;7749;49.964;7.890;2023-05-10T00:15:55;14.30;99.90
15296;DHT22;7749;49.964;7.890;2023-05-10T00:18:23;14.20;99.90
15296;DHT22;7749;49.964;7.890;2023-05-10T00:20:51;14.10;99.90
15296;DHT22;7749;49.964;7.890;2023-05-10T00:23:21;14.20;99.90
15296;DHT22;7749;49.964;7.890;2023-05-10T00:25:49;14.20;99.90
15296;DHT22;7749;49.964;7.890;2023-05-10T00:28:19;14.20;99.90
15296;DHT22;7749;49.964;7.890;2023-05-10T00:30:47;14.10;99.90
15296;DHT22;7749;49.964;7.890;2023-05-10T00:33:15;14.10;99.90
15296;DHT22;7749;49.964;7.890;2023-05-10T00:35:43;14.10;99.90
15296;DHT22;7749;49.964;7.890;2023-05-10T00:38:12;14.20;99.90
15296;DHT22;7749;49.964;7.890;2023-05-10T00:40:40;14.10;99.90
15296;DHT22;7749;49.964;7.890;2023-05-10T00:43:08;14.20;99.90
15296;DHT22;7749;49.964;7.890;2023-05-10T00:45:36;14.10;99.90
15296;DHT22;7749;49.964;7.890;2023-05-10T00:48:04;14.10;99.90
15296;DHT22;7749;49.964;7.890;2023-05-10T00:50:33;14.10;99.90
15296;DHT22;7749;49.964;7.890;2023-05-10T00:53:01;14.10;99.90
15296;DHT22;7749;49.964;7.890;2023-05-10T00:55:32;14.10;99.90
15296;DHT22;7749;49.964;7.890;2023-05-10T00:58:00;14.10;99.90
15296;DHT22;7749;49.964;7.890;2023-05-10T01:00:29;14.10;99.90
15296;DHT22;7749;49.964;7.890;2023-05-10T01:02:57;14.20;99.90
15296;DHT22;7749;49.964;7.890;2023-05-10T01:05:25;14.10;99.90
15296;DHT22;7749;49.964;7.890;2023-05-10T01:07:54;14.10;99.90
15296;DHT22;7749;49.964;7.890;2023-05-10T01:10:23;14.20;99.90
15296;DHT22;7749;49.964;7.890;2023-05-10T01:12:51;14.10;99.90
15296;DHT22;7749;49.964;7.890;2023-05-10T01:15:20;14.10;99.90
15296;DHT22;7749;49.964;7.890;2023-05-10T01:17:48;14.10;99.90
15296;DHT22;7749;49.964;7.890;2023-05-10T01:20:19;14.10;99.90
15296;DHT22;7749;49.964;7.890;2023-05-10T01:25:48;14.10;99.90
15296;DHT22;7749;49.964;7.890;2023-05-10T01:34:11;14.10;99.90
15296;DHT22;7749;49.964;7.890;2023-05-10T01:36:45;14.10;99.90
15296;DHT22;7749;49.964;7.890;2023-05-10T01:42:10;14.00;99.90
15296;DHT22;7749;49.964;7.890;2023-05-10T01:44:39;14.10;99.90
15296;DHT22;7749;49.964;7.890;2023-05-10T01:47:57;14.00;99.90
15296;DHT22;7749;49.964;7.890;2023-05-10T01:50:06;14.00;99.90
15296;DHT22;7749;49.964;7.890;2023-05-10T01:52:38;14.10;99.90
15296;DHT22;7749;49.964;7.890;2023-05-10T01:55:14;14.00;99.90
15296;DHT22;7749;49.964;7.890;2023-05-10T01:57:44;14.00;99.90
15296;DHT22;7749;49.964;7.890;2023-05-10T02:00:14;14.00;99.90
15296;DHT22;7749;49.964;7.890;2023-05-10T02:02:46;14.00;99.90
15296;DHT22;7749;49.964;7.890;2023-05-10T02:05:17;14.00;99.90
15296;DHT22;7749;49.964;7.890;2023-05-10T02:07:47;14.00;99.90
15296;DHT22;7749;49.964;7.890;2023-05-10T02:10:15;14.00;99.90
15296;DHT22;7749;49.964;7.890;2023-05-10T02:12:47;13.90;99.90
15296;DHT22;7749;49.964;7.890;2023-05-10T02:15:20;13.90;99.90
15296;DHT22;7749;49.964;7.890;2023-05-10T02:17:55;13.90;99.90
15296;DHT22;7749;49.964;7.890;2023-05-10T02:20:26;13.80;99.90
15296;DHT22;7749;49.964;7.890;2023-05-10T02:22:57;13.80;99.90
15296;DHT22;7749;49.964;7.890;2023-05-10T02:25:25;13.80;99.90
15296;DHT22;7749;49.964;7.890;2023-05-10T02:27:55;13.80;99.90
15296;DHT22;7749;49.964;7.890;2023-05-10T02:30:24;13.80;99.90
15296;DHT22;7749;49.964;7.890;2023-05-10T02:32:56;13.90;99.90
15296;DHT22;7749;49.964;7.890;2023-05-10T02:35:25;13.90;99.90
15296;DHT22;7749;49.964;7.890;2023-05-10T02:37:53;13.90;99.90
15296;DHT22;7749;49.964;7.890;2023-05-10T02:40:23;13.90;99.90
15296;DHT22;7749;49.964;7.890;2023-05-10T02:42:58;13.90;99.90
15296;DHT22;7749;49.964;7.890;2023-05-10T02:45:30;13.90;99.90
15296;DHT22;7749;49.964;7.890;2023-05-10T02:47:58;13.90;99.90
15296;DHT22;7749;49.964;7.890;2023-05-10T02:50:30;13.90;99.90
15296;DHT22;7749;49.964;7.890;2023-05-10T02:53:09;13.90;99.90
15296;DHT22;7749;49.964;7.890;2023-05-10T02:55:41;13.90;99.90
15296;DHT22;7749;49.964;7.890;2023-05-10T02:58:14;13.90;99.90
15296;DHT22;7749;49.964;7.890;2023-05-10T03:00:42;13.90;99.90
15296;DHT22;7749;49.964;7.890;2023-05-10T03:03:10;14.00;99.90
15296;DHT22;7749;49.964;7.890;2023-05-10T03:05:41;14.00;99.90
15296;DHT22;7749;49.964;7.890;2023-05-10T03:08:09;13.90;99.90
15296;DHT22;7749;49.964;7.890;2023-05-10T03:10:50;13.80;99.90
15296;DHT22;7749;49.964;7.890;2023-05-10T03:13:47;14.00;99.90
15296;DHT22;7749;49.964;7.890;2023-05-10T03:16:27;13.80;99.90
15296;DHT22;7749;49.964;7.890;2023-05-10T03:19:08;13.80;99.90
15296;DHT22;7749;49.964;7.890;2023-05-10T03:21:41;13.90;99.90
15296;DHT22;7749;49.964;7.890;2023-05-10T03:24:12;13.90;99.90
15296;DHT22;7749;49.964;7.890;2023-05-10T03:26:44;14.00;99.90
15296;DHT22;7749;49.964;7.890;2023-05-10T03:29:13;13.90;99.90
15296;DHT22;7749;49.964;7.890;2023-05-10T03:31:42;13.90;99.90
15296;DHT22;7749;49.964;7.890;2023-05-10T03:34:10;13.90;99.90
15296;DHT22;7749;49.964;7.890;2023-05-10T03:36:37;13.90;99.90
15296;DHT22;7749;49.964;7.890;2023-05-10T03:39:05;14.00;99.90
15296;DHT22;7749;49.964;7.890;2023-05-10T03:41:35;14.00;99.90
15296;DHT22;7749;49.964;7.890;2023-05-10T03:44:06;14.00;99.90
15296;DHT22;7749;49.964;7.890;2023-05-10T03:46:34;14.00;99.90
15296;DHT22;7749;49.964;7.890;2023-05-10T03:49:01;14.10;99.90
15296;DHT22;7749;49.964;7.890;2023-05-10T03:51:32;14.10;99.90
15296;DHT22;7749;49.964;7.890;2023-05-10T03:54:00;14.00;99.90
15296;DHT22;7749;49.964;7.890;2023-05-10T03:56:28;14.10;99.90
15296;DHT22;7749;49.964;7.890;2023-05-10T03:58:55;14.10;99.90
15296;DHT22;7749;49.964;7.890;2023-05-10T04:01:23;14.10;99.90
15296;DHT22;7749;49.964;7.890;2023-05-10T04:04:16;14.10;99.90
15296;DHT22;7749;49.964;7.890;2023-05-10T04:06:49;14.00;99.90
15296;DHT22;7749;49.964;7.890;2023-05-10T04:09:17;14.10;99.90
15296;DHT22;7749;49.964;7.890;2023-05-10T04:11:44;14.10;99.90
15296;DHT22;7749;49.964;7.890;2023-05-10T04:14:12;14.10;99.90
15296;DHT22;7749;49.964;7.890;2023-05-10T04:16:40;14.10;99.90
15296;DHT22;7749;49.964;7.890;2023-05-10T04:19:07;14.10;99.90
15296;DHT22;7749;49.964;7.890;2023-05-10T04:21:36;14.00;99.90
15296;DHT22;7749;49.964;7.890;2023-05-10T04:24:04;14.10;99.90
15296;DHT22;7749;49.964;7.890;2023-05-10T04:26:31;14.00;99.90
15296;DHT22;7749;49.964;7.890;2023-05-10T04:28:59;14.00;99.90
15296;DHT22;7749;49.964;7.890;2023-05-10T04:31:27;14.00;99.90
15296;DHT22;7749;49.964;7.890;2023-05-10T04:33:55;14.00;99.90
15296;DHT22;7749;49.964;7.890;2023-05-10T04:36:23;14.00;99.90
15296;DHT22;7749;49.964;7.890;2023-05-10T04:38:51;14.10;99.90
15296;DHT22;7749;49.964;7.890;2023-05-10T04:41:22;14.00;99.90
15296;DHT22;7749;49.964;7.890;2023-05-10T04:43:50;14.00;99.90
15296;DHT22;7749;49.964;7.890;2023-05-10T04:46:18;14.00;99.90
15296;DHT22;7749;49.964;7.890;2023-05-10T04:48:46;14.00;99.90
15296;DHT22;7749;49.964;7.890;2023-05-10T04:51:18;14.00;99.90
15296;DHT22;7749;49.964;7.890;2023-05-10T04:53:48;14.00;99.90
15296;DHT22;7749;49.964;7.890;2023-05-10T04:56:32;14.10;99.90
15296;DHT22;7749;49.964;7.890;2023-05-10T04:59:00;14.10;99.90
15296;DHT22;7749;49.964;7.890;2023-05-10T05:01:30;14.10;99.90
15296;DHT22;7749;49.964;7.890;2023-05-10T05:03:58;14.10;99.90
15296;DHT22;7749;49.964;7.890;2023-05-10T05:06:27;14.10;99.90
15296;DHT22;7749;49.964;7.890;2023-05-10T05:08:54;14.20;99.90
15296;DHT22;7749;49.964;7.890;2023-05-10T05:11:22;14.30;99.90
15296;DHT22;7749;49.964;7.890;2023-05-10T05:13:53;14.30;99.90
15296;DHT22;7749;49.964;7.890;2023-05-10T05:16:20;14.40;99.90
15296;DHT22;7749;49.964;7.890;2023-05-10T05:18:48;14.40;99.90
15296;DHT22;7749;49.964;7.890;2023-05-10T05:21:17;14.50;99.90
15296;DHT22;7749;49.964;7.890;2023-05-10T05:23:48;14.60;99.90
15296;DHT22;7749;49.964;7.890;2023-05-10T05:26:21;14.50;99.90
15296;DHT22;7749;49.964;7.890;2023-05-10T05:28:49;14.60;99.90
15296;DHT22;7749;49.964;7.890;2023-05-10T05:31:20;14.80;99.90
15296;DHT22;7749;49.964;7.890;2023-05-10T05:33:48;15.00;99.90
15296;DHT22;7749;49.964;7.890;2023-05-10T05:36:16;15.20;99.90
15296;DHT22;7749;49.964;7.890;2023-05-10T05:38:44;15.40;99.90
15296;DHT22;7749;49.964;7.890;2023-05-10T05:41:17;15.40;99.90
15296;DHT22;7749;49.964;7.890;2023-05-10T05:43:45;15.50;99.90
15296;DHT22;7749;49.964;7.890;2023-05-10T05:46:12;15.50;99.90
15296;DHT22;7749;49.964;7.890;2023-05-10T05:48:40;15.50;99.90
15296;DHT22;7749;49.964;7.890;2023-05-10T05:51:11;15.60;99.90
15296;DHT22;7749;49.964;7.890;2023-05-10T05:53:41;15.50;99.90
15296;DHT22;7749;49.964;7.890;2023-05-10T05:56:09;15.40;99.90
15296;DHT22;7749;49.964;7.890;2023-05-10T05:58:37;15.50;99.90
15296;DHT22;7749;49.964;7.890;2023-05-10T06:01:05;15.50;99.90
15296;DHT22;7749;49.964;7.890;2023-05-10T06:03:33;15.50;99.90
15296;DHT22;7749;49.964;7.890;2023-05-10T06:06:03;15.60;99.90
15296;DHT22;7749;49.964;7.890;2023-05-10T06:08:31;15.70;99.90
15296;DHT22;7749;49.964;7.890;2023-05-10T06:11:00;15.80;99.90
15296;DHT22;7749;49.964;7.890;2023-05-10T06:13:27;15.80;99.90
15296;DHT22;7749;49.964;7.890;2023-05-10T06:16:00;15.80;99.90
15296;DHT22;7749;49.964;7.890;2023-05-10T06:18:34;15.90;99.90
15296;DHT22;7749;49.964;7.890;2023-05-10T06:21:02;16.00;99.90
15296;DHT22;7749;49.964;7.890;2023-05-10T06:23:30;16.30;99.90
15296;DHT22;7749;49.964;7.890;2023-05-10T06:25:59;16.30;99.90
15296;DHT22;7749;49.964;7.890;2023-05-10T06:28:27;16.50;99.90
15296;DHT22;7749;49.964;7.890;2023-05-10T06:30:58;16.70;99.90
15296;DHT22;7749;49.964;7.890;2023-05-10T06:33:25;16.90;99.90
15296;DHT22;7749;49.964;7.890;2023-05-10T06:35:53;17.10;99.90
15296;DHT22;7749;49.964;7.890;2023-05-10T06:38:21;17.30;37.60
15296;DHT22;7749;49.964;7.890;2023-05-10T06:40:49;16.60;71.40
15296;DHT22;7749;49.964;7.890;2023-05-10T06:43:20;16.70;36.80
15296;DHT22;7749;49.964;7.890;2023-05-10T06:45:48;16.50;41.00
15296;DHT22;7749;49.964;7.890;2023-05-10T06:48:16;16.30;99.90
15296;DHT22;7749;49.964;7.890;2023-05-10T06:50:44;16.30;90.50
15296;DHT22;7749;49.964;7.890;2023-05-10T06:53:12;16.60;73.30
15296;DHT22;7749;49.964;7.890;2023-05-10T06:55:41;16.30;77.30
15296;DHT22;7749;49.964;7.890;2023-05-10T06:58:09;16.40;95.00
15296;DHT22;7749;49.964;7.890;2023-05-10T07:00:37;16.40;81.60
15296;DHT22;7749;49.964;7.890;2023-05-10T07:03:08;16.80;92.10
15296;DHT22;7749;49.964;7.890;2023-05-10T07:05:35;17.30;28.80
15296;DHT22;7749;49.964;7.890;2023-05-10T07:08:03;17.70;1.00
15296;DHT22;7749;49.964;7.890;2023-05-10T07:10:34;17.50;1.00
15296;DHT22;7749;49.964;7.890;2023-05-10T07:13:01;17.00;5.30
15296;DHT22;7749;49.964;7.890;2023-05-10T07:15:29;16.90;31.40
15296;DHT22;7749;49.964;7.890;2023-05-10T07:17:57;16.70;44.10
15296;DHT22;7749;49.964;7.890;2023-05-10T07:20:25;16.80;29.50
15296;DHT22;7749;49.964;7.890;2023-05-10T07:23:02;16.90;25.50
15296;DHT22;7749;49.964;7.890;2023-05-10T07:25:32;17.20;1.00
15296;DHT22;7749;49.964;7.890;2023-05-10T07:28:00;17.40;1.00
15296;DHT22;7749;49.964;7.890;2023-05-10T07:30:37;17.60;1.00
15296;DHT22;7749;49.964;7.890;2023-05-10T07:33:05;17.50;2.90
15296;DHT22;7749;49.964;7.890;2023-05-10T07:35:32;18.00;1.00
15296;DHT22;7749;49.964;7.890;2023-05-10T07:38:00;17.90;1.00
15296;DHT22;7749;49.964;7.890;2023-05-10T07:40:32;17.90;1.00
15296;DHT22;7749;49.964;7.890;2023-05-10T07:42:59;17.90;3.90
15296;DHT22;7749;49.964;7.890;2023-05-10T07:45:29;18.00;1.00
15296;DHT22;7749;49.964;7.890;2023-05-10T07:47:57;18.10;1.00
15296;DHT22;7749;49.964;7.890;2023-05-10T07:50:24;17.90;1.00
15296;DHT22;7749;49.964;7.890;2023-05-10T07:52:52;18.10;1.00
15296;DHT22;7749;49.964;7.890;2023-05-10T07:55:20;18.00;1.00
15296;DHT22;7749;49.964;7.890;2023-05-10T07:57:48;18.40;1.00
15296;DHT22;7749;49.964;7.890;2023-05-10T08:00:18;17.90;1.00
15296;DHT22;7749;49.964;7.890;2023-05-10T08:02:55;18.00;1.00
15296;DHT22;7749;49.964;7.890;2023-05-10T08:05:22;18.30;1.00
15296;DHT22;7749;49.964;7.890;2023-05-10T08:07:51;18.70;1.00
15296;DHT22;7749;49.964;7.890;2023-05-10T08:10:24;18.70;1.00
15296;DHT22;7749;49.964;7.890;2023-05-10T08:13:00;19.10;1.00
15296;DHT22;7749;49.964;7.890;2023-05-10T08:15:32;19.40;1.00
15296;DHT22;7749;49.964;7.890;2023-05-10T08:17:59;18.80;1.00
15296;DHT22;7749;49.964;7.890;2023-05-10T08:20:27;18.60;1.00
15296;DHT22;7749;49.964;7.890;2023-05-10T08:22:55;18.70;1.00
15296;DHT22;7749;49.964;7.890;2023-05-10T08:25:26;18.50;1.00
15296;DHT22;7749;49.964;7.890;2023-05-10T08:27:54;17.90;1.00
15296;DHT22;7749;49.964;7.890;2023-05-10T08:30:22;17.80;1.00
15296;DHT22;7749;49.964;7.890;2023-05-10T08:32:49;17.50;4.60
15296;DHT22;7749;49.964;7.890;2023-05-10T08:35:22;17.60;18.60
15296;DHT22;7749;49.964;7.890;2023-05-10T08:38:02;17.10;1.00
15296;DHT22;7749;49.964;7.890;2023-05-10T08:40:30;17.20;1.00
15296;DHT22;7749;49.964;7.890;2023-05-10T08:43:05;17.20;1.00
15296;DHT22;7749;49.964;7.890;2023-05-10T08:45:39;17.40;1.00
15296;DHT22;7749;49.964;7.890;2023-05-10T08:48:08;17.30;1.00
15296;DHT22;7749;49.964;7.890;2023-05-10T08:50:37;17.50;1.00
15296;DHT22;7749;49.964;7.890;2023-05-10T08:53:13;17.60;1.00
15296;DHT22;7749;49.964;7.890;2023-05-10T08:55:42;17.70;1.00
15296;DHT22;7749;49.964;7.890;2023-05-10T08:58:30;17.70;1.00
15296;DHT22;7749;49.964;7.890;2023-05-10T09:00:58;17.20;1.00
15296;DHT22;7749;49.964;7.890;2023-05-10T09:03:26;17.10;1.00
15296;DHT22;7749;49.964;7.890;2023-05-10T09:05:56;17.50;1.00
15296;DHT22;7749;49.964;7.890;2023-05-10T09:08:25;17.30;1.00
15296;DHT22;7749;49.964;7.890;2023-05-10T09:10:54;17.30;1.00
15296;DHT22;7749;49.964;7.890;2023-05-10T09:13:23;17.50;1.00
15296;DHT22;7749;49.964;7.890;2023-05-10T09:15:52;17.90;1.00
15296;DHT22;7749;49.964;7.890;2023-05-10T09:18:26;18.00;1.00
15296;DHT22;7749;49.964;7.890;2023-05-10T09:20:55;18.20;1.00
15296;DHT22;7749;49.964;7.890;2023-05-10T09:23:22;18.60;1.00
15296;DHT22;7749;49.964;7.890;2023-05-10T09:26:02;18.70;99.90
15296;DHT22;7749;49.964;7.890;2023-05-10T09:28:34;18.40;1.00
15296;DHT22;7749;49.964;7.890;2023-05-10T09:31:17;18.40;1.00
15296;DHT22;7749;49.964;7.890;2023-05-10T09:33:49;18.40;1.00
15296;DHT22;7749;49.964;7.890;2023-05-10T09:36:17;18.60;99.90
15296;DHT22;7749;49.964;7.890;2023-05-10T09:38:49;18.60;1.00
15296;DHT22;7749;49.964;7.890;2023-05-10T09:41:21;18.40;99.90
15296;DHT22;7749;49.964;7.890;2023-05-10T09:43:49;18.50;99.90
15296;DHT22;7749;49.964;7.890;2023-05-10T09:46:17;18.30;99.90
15296;DHT22;7749;49.964;7.890;2023-05-10T09:48:46;18.50;1.00
15296;DHT22;7749;49.964;7.890;2023-05-10T09:51:22;18.00;80.80
15296;DHT22;7749;49.964;7.890;2023-05-10T09:56:38;18.40;1.00
15296;DHT22;7749;49.964;7.890;2023-05-10T09:59:10;18.70;99.90
15296;DHT22;7749;49.964;7.890;2023-05-10T10:01:38;18.80;1.00
15296;DHT22;7749;49.964;7.890;2023-05-10T10:04:08;18.70;99.90
15296;DHT22;7749;49.964;7.890;2023-05-10T10:06:37;18.20;1.00
15296;DHT22;7749;49.964;7.890;2023-05-10T10:09:08;18.50;1.00
15296;DHT22;7749;49.964;7.890;2023-05-10T10:11:39;18.60;1.00
15296;DHT22;7749;49.964;7.890;2023-05-10T10:14:07;19.40;1.00
15296;DHT22;7749;49.964;7.890;2023-05-10T10:16:35;19.40;1.00
15296;DHT22;7749;49.964;7.890;2023-05-10T10:19:03;19.40;7.10
15296;DHT22;7749;49.964;7.890;2023-05-10T10:21:31;18.90;99.90
15296;DHT22;7749;49.964;7.890;2023-05-10T10:24:00;19.00;99.90
15296;DHT22;7749;49.964;7.890;2023-05-10T10:26:27;19.00;99.90
15296;DHT22;7749;49.964;7.890;2023-05-10T10:29:21;19.10;1.00
15296;DHT22;7749;49.964;7.890;2023-05-10T10:32:09;19.00;99.90
15296;DHT22;7749;49.964;7.890;2023-05-10T10:34:39;18.60;1.00
15296;DHT22;7749;49.964;7.890;2023-05-10T10:37:07;19.00;1.00
15296;DHT22;7749;49.964;7.890;2023-05-10T10:39:34;19.30;92.70
15296;DHT22;7749;49.964;7.890;2023-05-10T10:42:04;19.00;99.90
15296;DHT22;7749;49.964;7.890;2023-05-10T10:44:36;19.00;99.90
15296;DHT22;7749;49.964;7.890;2023-05-10T10:50:24;19.10;99.90
15296;DHT22;7749;49.964;7.890;2023-05-10T10:53:11;19.60;1.00
15296;DHT22;7749;49.964;7.890;2023-05-10T10:55:48;19.80;1.00
15296;DHT22;7749;49.964;7.890;2023-05-10T10:58:34;20.30;99.90
15296;DHT22;7749;49.964;7.890;2023-05-10T11:01:13;20.20;99.90
15296;DHT22;7749;49.964;7.890;2023-05-10T11:06:35;20.90;99.90
15296;DHT22;7749;49.964;7.890;2023-05-10T11:09:11;21.20;52.40
15296;DHT22;7749;49.964;7.890;2023-05-10T11:11:52;21.40;1.00
15296;DHT22;7749;49.964;7.890;2023-05-10T11:14:22;21.50;99.90
15296;DHT22;7749;49.964;7.890;2023-05-10T11:16:51;21.90;1.00
15296;DHT22;7749;49.964;7.890;2023-05-10T11:19:19;20.60;99.90
15296;DHT22;7749;49.964;7.890;2023-05-10T11:24:33;19.90;1.00
15296;DHT22;7749;49.964;7.890;2023-05-10T11:27:01;19.60;99.90
15296;DHT22;7749;49.964;7.890;2023-05-10T11:29:28;18.70;1.00
15296;DHT22;7749;49.964;7.890;2023-05-10T11:31:58;18.10;1.00
15296;DHT22;7749;49.964;7.890;2023-05-10T11:34:31;17.80;1.00
15296;DHT22;7749;49.964;7.890;2023-05-10T11:37:01;17.70;1.00
15296;DHT22;7749;49.964;7.890;2023-05-10T11:39:30;17.80;1.00
15296;DHT22;7749;49.964;7.890;2023-05-10T11:41:58;17.80;1.00
15296;DHT22;7749;49.964;7.890;2023-05-10T11:44:32;17.90;1.00
15296;DHT22;7749;49.964;7.890;2023-05-10T11:47:00;18.00;99.90
15296;DHT22;7749;49.964;7.890;2023-05-10T11:49:29;18.00;99.90
15296;DHT22;7749;49.964;7.890;2023-05-10T11:52:07;18.30;99.90
15296;DHT22;7749;49.964;7.890;2023-05-10T11:54:35;18.00;1.00
15296;DHT22;7749;49.964;7.890;2023-05-10T11:57:04;17.90;1.00
15296;DHT22;7749;49.964;7.890;2023-05-10T11:59:31;18.10;1.00
15296;DHT22;7749;49.964;7.890;2023-05-10T12:01:59;18.30;1.00
15296;DHT22;7749;49.964;7.890;2023-05-10T12:04:27;18.30;1.00
15296;DHT22;7749;49.964;7.890;2023-05-10T12:06:57;18.80;1.00
15296;DHT22;7749;49.964;7.890;2023-05-10T12:09:24;19.30;99.90
15296;DHT22;7749;49.964;7.890;2023-05-10T12:12:10;19.90;99.90
15296;DHT22;7749;49.964;7.890;2023-05-10T12:14:38;19.80;61.40
15296;DHT22;7749;49.964;7.890;2023-05-10T12:17:05;19.60;1.00
15296;DHT22;7749;49.964;7.890;2023-05-10T12:19:39;19.90;1.00
15296;DHT22;7749;49.964;7.890;2023-05-10T12:22:07;19.70;99.90
15296;DHT22;7749;49.964;7.890;2023-05-10T12:24:36;19.40;1.00
15296;DHT22;7749;49.964;7.890;2023-05-10T12:27:08;19.40;1.00
15296;DHT22;7749;49.964;7.890;2023-05-10T12:29:36;19.70;89.60
15296;DHT22;7749;49.964;7.890;2023-05-10T12:32:04;19.70;99.90
15296;DHT22;7749;49.964;7.890;2023-05-10T12:34:33;19.20;27.60
15296;DHT22;7749;49.964;7.890;2023-05-10T12:37:04;19.20;99.90
15296;DHT22;7749;49.964;7.890;2023-05-10T12:39:43;19.10;1.00
15296;DHT22;7749;49.964;7.890;2023-05-10T12:42:11;19.90;99.90
15296;DHT22;7749;49.964;7.890;2023-05-10T12:44:39;20.60;99.90
15296;DHT22;7749;49.964;7.890;2023-05-10T12:47:07;20.80;1.00
15296;DHT22;7749;49.964;7.890;2023-05-10T12:49:35;21.00;99.90
15296;DHT22;7749;49.964;7.890;2023-05-10T12:52:03;21.90;99.90
15296;DHT22;7749;49.964;7.890;2023-05-10T12:54:30;23.00;99.90
15296;DHT22;7749;49.964;7.890;2023-05-10T12:56:58;23.70;99.90
15296;DHT22;7749;49.964;7.890;2023-05-10T12:59:25;24.10;98.20
15296;DHT22;7749;49.964;7.890;2023-05-10T13:01:53;24.80;66.30
15296;DHT22;7749;49.964;7.890;2023-05-10T13:04:21;25.70;1.00
15296;DHT22;7749;49.964;7.890;2023-05-10T13:06:48;26.70;1.00
15296;DHT22;7749;49.964;7.890;2023-05-10T13:09:16;27.00;1.00
15296;DHT22;7749;49.964;7.890;2023-05-10T13:11:44;26.20;1.00
15296;DHT22;7749;49.964;7.890;2023-05-10T13:14:12;25.80;1.00
15296;DHT22;7749;49.964;7.890;2023-05-10T13:16:40;26.00;1.00
15296;DHT22;7749;49.964;7.890;2023-05-10T13:19:08;25.50;1.00
15296;DHT22;7749;49.964;7.890;2023-05-10T13:21:36;24.40;1.00
15296;DHT22;7749;49.964;7.890;2023-05-10T13:24:04;23.10;1.00
15296;DHT22;7749;49.964;7.890;2023-05-10T13:26:36;24.00;1.00
15296;DHT22;7749;49.964;7.890;2023-05-10T13:29:03;23.70;1.00
15296;DHT22;7749;49.964;7.890;2023-05-10T13:31:31;23.80;1.00
15296;DHT22;7749;49.964;7.890;2023-05-10T13:33:59;24.90;1.00
15296;DHT22;7749;49.964;7.890;2023-05-10T13:36:26;24.60;1.00
15296;DHT22;7749;49.964;7.890;2023-05-10T13:38:57;23.30;1.00
15296;DHT22;7749;49.964;7.890;2023-05-10T13:41:24;22.10;99.90
15296;DHT22;7749;49.964;7.890;2023-05-10T13:43:52;21.80;99.90
15296;DHT22;7749;49.964;7.890;2023-05-10T13:46:20;21.90;99.90
15296;DHT22;7749;49.964;7.890;2023-05-10T13:48:47;21.90;1.00
15296;DHT22;7749;49.964;7.890;2023-05-10T13:51:15;22.00;1.00
15296;DHT22;7749;49.964;7.890;2023-05-10T13:53:43;22.20;1.00
15296;DHT22;7749;49.964;7.890;2023-05-10T13:56:10;22.20;1.00
15296;DHT22;7749;49.964;7.890;2023-05-10T13:58:38;22.10;99.90
15296;DHT22;7749;49.964;7.890;2023-05-10T14:01:06;21.60;99.90
15296;DHT22;7749;49.964;7.890;2023-05-10T14:03:34;21.60;1.00
15296;DHT22;7749;49.964;7.890;2023-05-10T14:06:02;21.90;99.90
15296;DHT22;7749;49.964;7.890;2023-05-10T14:08:29;22.60;1.00
15296;DHT22;7749;49.964;7.890;2023-05-10T14:10:57;23.50;99.90
15296;DHT22;7749;49.964;7.890;2023-05-10T14:13:25;24.30;1.00
15296;DHT22;7749;49.964;7.890;2023-05-10T14:15:53;25.40;1.00
15296;DHT22;7749;49.964;7.890;2023-05-10T14:18:21;25.30;1.00
15296;DHT22;7749;49.964;7.890;2023-05-10T14:20:49;24.50;1.00
15296;DHT22;7749;49.964;7.890;2023-05-10T14:23:16;24.80;1.00
15296;DHT22;7749;49.964;7.890;2023-05-10T14:25:47;25.00;1.00
15296;DHT22;7749;49.964;7.890;2023-05-10T14:28:15;24.60;1.00
15296;DHT22;7749;49.964;7.890;2023-05-10T14:30:43;24.20;1.00
15296;DHT22;7749;49.964;7.890;2023-05-10T14:33:11;23.50;1.00
15296;DHT22;7749;49.964;7.890;2023-05-10T14:35:44;23.70;1.00
15296;DHT22;7749;49.964;7.890;2023-05-10T14:38:15;23.70;1.00
15296;DHT22;7749;49.964;7.890;2023-05-10T14:40:45;23.00;1.00
15296;DHT22;7749;49.964;7.890;2023-05-10T14:43:12;22.20;1.00
15296;DHT22;7749;49.964;7.890;2023-05-10T14:45:40;21.80;99.90
15296;DHT22;7749;49.964;7.890;2023-05-10T14:48:08;21.60;1.00
15296;DHT22;7749;49.964;7.890;2023-05-10T14:50:39;21.60;1.00
15296;DHT22;7749;49.964;7.890;2023-05-10T14:53:07;22.00;1.00
15296;DHT22;7749;49.964;7.890;2023-05-10T14:55:34;21.60;69.80
15296;DHT22;7749;49.964;7.890;2023-05-10T14:58:05;22.10;99.90
15296;DHT22;7749;49.964;7.890;2023-05-10T15:00:32;22.80;60.60
15296;DHT22;7749;49.964;7.890;2023-05-10T15:03:01;23.00;1.00
15296;DHT22;7749;49.964;7.890;2023-05-10T15:05:29;22.80;1.00
15296;DHT22;7749;49.964;7.890;2023-05-10T15:07:57;22.50;1.00
15296;DHT22;7749;49.964;7.890;2023-05-10T15:10:25;22.10;1.00
15296;DHT22;7749;49.964;7.890;2023-05-10T15:12:52;22.00;26.90
15296;DHT22;7749;49.964;7.890;2023-05-10T15:15:20;21.80;1.00
15296;DHT22;7749;49.964;7.890;2023-05-10T15:17:48;21.90;1.00
15296;DHT22;7749;49.964;7.890;2023-05-10T15:20:16;21.60;1.00
15296;DHT22;7749;49.964;7.890;2023-05-10T15:22:44;21.50;61.70
15296;DHT22;7749;49.964;7.890;2023-05-10T15:25:14;21.30;99.90
15296;DHT22;7749;49.964;7.890;2023-05-10T15:27:43;21.60;99.90
15296;DHT22;7749;49.964;7.890;2023-05-10T15:30:11;21.80;99.90
15296;DHT22;7749;49.964;7.890;2023-05-10T15:32:39;21.90;1.00
15296;DHT22;7749;49.964;7.890;2023-05-10T15:35:08;22.30;1.00
15296;DHT22;7749;49.964;7.890;2023-05-10T15:37:38;22.70;1.00
15296;DHT22;7749;49.964;7.890;2023-05-10T15:40:06;23.30;1.00
15296;DHT22;7749;49.964;7.890;2023-05-10T15:42:34;24.90;1.00
15296;DHT22;7749;49.964;7.890;2023-05-10T15:45:02;26.30;1.00
15296;DHT22;7749;49.964;7.890;2023-05-10T15:47:31;27.60;1.00
15296;DHT22;7749;49.964;7.890;2023-05-10T15:49:59;27.60;1.00
15296;DHT22;7749;49.964;7.890;2023-05-10T15:52:29;28.00;1.00
15296;DHT22;7749;49.964;7.890;2023-05-10T15:54:57;28.20;99.90
15296;DHT22;7749;49.964;7.890;2023-05-10T15:57:24;26.20;99.90
15296;DHT22;7749;49.964;7.890;2023-05-10T15:59:52;26.40;99.90
15296;DHT22;7749;49.964;7.890;2023-05-10T16:02:22;26.60;99.90
15296;DHT22;7749;49.964;7.890;2023-05-10T16:04:50;26.50;99.90
15296;DHT22;7749;49.964;7.890;2023-05-10T16:07:18;27.80;99.90
15296;DHT22;7749;49.964;7.890;2023-05-10T16:09:45;28.60;99.90
15296;DHT22;7749;49.964;7.890;2023-05-10T16:12:13;28.40;99.90
15296;DHT22;7749;49.964;7.890;2023-05-10T16:14:43;27.90;99.90
15296;DHT22;7749;49.964;7.890;2023-05-10T16:17:11;27.50;99.90
15296;DHT22;7749;49.964;7.890;2023-05-10T16:19:38;26.20;99.90
15296;DHT22;7749;49.964;7.890;2023-05-10T16:22:07;25.80;99.90
15296;DHT22;7749;49.964;7.890;2023-05-10T16:24:35;26.60;99.90
15296;DHT22;7749;49.964;7.890;2023-05-10T16:27:03;27.70;99.90
15296;DHT22;7749;49.964;7.890;2023-05-10T16:29:30;28.50;99.90
15296;DHT22;7749;49.964;7.890;2023-05-10T16:31:58;29.10;99.90